Time;durP1;ratioP1;P1;durP2;ratioP2;P2;SDS_P1;SDS_P2;PMS_P1;PMS_P2;Temp;Humidity;BMP_temperature;BMP_pressure;BME280_temperature;BME280_humidity;BME280_pressure;Samples;Min_cycle;Max_cycle;Signal;HPM_P1;HPM_P2
2022/07/24 00:00:15;;;;;;;11.63;5.07;;;;;;;25.13;100.00;101003.50;2075296;28;20216;-65
2022/07/24 00:01:16;;;;;;;10.73;5.23;;;;;;;25.19;100.00;101004.25;2080201;28;20205;-65
2022/07/24 00:02:16;;;;;;;9.97;5.33;;;;;;;25.22;100.00;101008.84;2077930;28;20666;-65
2022/07/24 00:03:17;;;;;;;8.27;5.27;;;;;;;25.24;100.00;101004.19;2081276;28;20702;-65
2022/07/24 00:04:17;;;;;;;11.90;5.10;;;;;;;25.25;100.00;101004.97;2074189;28;20227;-65
2022/07/24 00:05:18;;;;;;;9.90;5.60;;;;;;;25.24;100.00;101001.34;2078528;28;20196;-65
2022/07/24 00:06:18;;;;;;;10.30;5.03;;;;;;;25.25;100.00;100997.28;2081057;28;20275;-65
2022/07/24 00:07:19;;;;;;;8.30;4.60;;;;;;;25.28;100.00;101001.88;2080802;28;20227;-65
2022/07/24 00:08:19;;;;;;;10.63;5.07;;;;;;;24.96;100.00;100965.94;2081403;28;20252;-65
2022/07/24 00:09:20;;;;;;;8.80;5.10;;;;;;;25.28;100.00;101004.72;2080592;28;20272;-65
2022/07/24 00:10:20;;;;;;;11.57;5.20;;;;;;;25.30;100.00;101004.97;2073146;28;20261;-65
2022/07/24 00:11:21;;;;;;;13.63;5.57;;;;;;;25.26;100.00;101010.16;2072884;28;20193;-65
2022/07/24 00:12:21;;;;;;;9.17;5.23;;;;;;;25.28;100.00;101001.88;2073121;28;20178;-65
2022/07/24 00:13:22;;;;;;;8.50;4.57;;;;;;;25.33;100.00;101006.00;2077682;28;20199;-65
2022/07/24 00:14:22;;;;;;;12.60;5.30;;;;;;;25.34;100.00;101001.88;2077527;28;20186;-65
2022/07/24 00:15:23;;;;;;;10.03;4.70;;;;;;;25.34;100.00;101004.69;2075233;28;20669;-65
2022/07/24 00:16:23;;;;;;;10.93;5.17;;;;;;;25.39;100.00;101001.06;2081064;28;20256;-65
2022/07/24 00:17:24;;;;;;;11.47;4.50;;;;;;;25.42;100.00;101000.00;2081089;28;20189;-65
2022/07/24 00:18:24;;;;;;;8.60;4.57;;;;;;;25.44;100.00;100989.66;2073673;28;20186;-65
2022/07/24 00:19:25;;;;;;;10.03;4.73;;;;;;;25.46;100.00;100987.06;2072989;28;20197;-65
2022/07/24 00:20:26;;;;;;;8.43;5.13;;;;;;;25.40;100.00;100974.22;2073028;28;20219;-65
2022/07/24 00:21:27;;;;;;;7.67;5.03;;;;;;;25.50;100.00;100984.72;2072886;28;20196;-65
2022/07/24 00:22:27;;;;;;;10.23;5.20;;;;;;;25.50;100.00;100981.91;2076219;28;20189;-65
2022/07/24 00:23:28;;;;;;;12.60;5.07;;;;;;;25.55;100.00;100983.91;2080497;28;20177;-65
2022/07/24 00:24:29;;;;;;;8.57;5.10;;;;;;;25.57;100.00;100977.69;2080908;28;20400;-65
2022/07/24 00:25:30;;;;;;;9.40;5.10;;;;;;;25.62;100.00;100977.66;2072977;28;20189;-65
2022/07/24 00:26:30;;;;;;;9.47;4.83;;;;;;;25.62;100.00;100979.72;2079604;28;20184;-65
2022/07/24 00:27:31;;;;;;;7.70;4.90;;;;;;;25.38;100.00;100931.44;2080578;28;20229;-65
2022/07/24 00:28:32;;;;;;;10.20;5.10;;;;;;;24.85;100.00;100859.06;2081103;28;20255;-65
2022/07/24 00:29:32;;;;;;;8.50;4.97;;;;;;;25.68;100.00;100980.44;2080273;28;20702;-65
2022/07/24 00:30:33;;;;;;;8.50;4.93;;;;;;;25.72;100.00;100980.94;2080609;28;20204;-65
2022/07/24 00:31:34;;;;;;;8.53;5.13;;;;;;;25.75;100.00;100982.72;2074604;28;20176;-65
2022/07/24 00:32:34;;;;;;;7.17;4.50;;;;;;;25.78;100.00;100982.44;2081214;28;20685;-65
2022/07/24 00:33:35;;;;;;;21.10;5.70;;;;;;;25.70;100.00;100986.38;2080599;28;20188;-65
2022/07/24 00:34:35;;;;;;;16.50;5.60;;;;;;;25.63;100.00;100993.38;2080652;28;20678;-65
2022/07/24 00:35:36;;;;;;;22.23;5.77;;;;;;;25.55;100.00;100986.75;2080877;28;20663;-65
2022/07/24 00:36:36;;;;;;;23.03;5.97;;;;;;;24.69;100.00;100868.44;2076807;28;20197;-65
2022/07/24 00:37:37;;;;;;;13.17;4.97;;;;;;;25.48;100.00;101007.16;2075490;28;20189;-65
2022/07/24 00:38:37;;;;;;;12.20;5.10;;;;;;;25.51;100.00;100997.63;2078881;28;20189;-65
2022/07/24 00:39:37;;;;;;;12.47;5.17;;;;;;;25.55;100.00;100998.13;2073607;28;20181;-65
2022/07/24 00:40:38;;;;;;;11.33;5.17;;;;;;;25.58;100.00;100996.28;2081144;28;20234;-65
2022/07/24 00:41:39;;;;;;;12.07;5.70;;;;;;;25.47;100.00;100971.59;2080462;28;20221;-65
2022/07/24 00:42:39;;;;;;;15.00;5.53;;;;;;;25.64;100.00;100992.09;2080359;28;20189;-65
2022/07/24 00:44:09;;;;;;;16.07;4.90;;;;;;;25.65;100.00;100996.47;2076460;28;20251;-65
2022/07/24 00:45:10;;;;;;;11.97;5.20;;;;;;;25.68;100.00;100995.41;2072496;28;20256;-65
2022/07/24 00:46:11;;;;;;;14.63;5.67;;;;;;;25.69;100.00;100991.28;2073133;28;20269;-65
2022/07/24 00:47:11;;;;;;;19.10;5.87;;;;;;;25.70;100.00;100992.06;2072597;28;20197;-65
2022/07/24 00:48:11;;;;;;;12.83;5.83;;;;;;;25.71;100.00;100994.38;2072801;28;20652;-65
2022/07/24 00:49:15;;;;;;;19.07;5.03;;;;;;;25.71;100.00;100997.22;2075064;28;20232;-65
2022/07/24 00:50:15;;;;;;;16.03;5.30;;;;;;;25.72;100.00;100995.13;2081114;28;20196;-65
2022/07/24 00:51:16;;;;;;;12.13;5.13;;;;;;;25.73;100.00;101000.28;2080887;28;20212;-65
2022/07/24 00:52:16;;;;;;;11.83;5.30;;;;;;;25.72;100.00;100992.28;2081936;28;20556;-65
2022/07/24 00:53:17;;;;;;;15.80;5.77;;;;;;;25.32;100.00;100947.69;2075028;28;20558;-65
2022/07/24 00:54:20;;;;;;;7.23;4.60;;;;;;;25.72;100.00;100995.13;2074142;28;20190;-65
2022/07/24 00:55:21;;;;;;;8.43;4.97;;;;;;;25.65;100.00;100979.44;2074129;28;20181;-65
2022/07/24 00:56:22;;;;;;;7.93;5.00;;;;;;;25.24;100.00;100941.78;2078760;28;20185;-65
2022/07/24 00:57:23;;;;;;;7.60;4.70;;;;;;;25.66;100.00;100997.25;2077907;28;20200;-65
2022/07/24 00:58:23;;;;;;;9.07;4.90;;;;;;;25.60;100.00;101005.03;2075937;28;20188;-65
2022/07/24 00:59:24;;;;;;;10.67;5.27;;;;;;;25.56;100.00;100999.66;2082575;28;20271;-65
2022/07/24 01:00:24;;;;;;;12.20;5.43;;;;;;;25.10;100.00;100925.13;2082550;28;20201;-65
2022/07/24 01:01:26;;;;;;;9.73;5.33;;;;;;;24.66;100.00;100860.22;2082449;28;20728;-65
2022/07/24 01:02:26;;;;;;;14.50;5.20;;;;;;;25.49;100.00;100990.94;2082536;28;20283;-65
2022/07/24 01:03:27;;;;;;;9.83;5.67;;;;;;;25.49;100.00;100993.75;2081594;28;20191;-65
2022/07/24 01:04:27;;;;;;;10.80;5.37;;;;;;;25.54;100.00;100993.72;2081755;28;20238;-65
2022/07/24 01:05:28;;;;;;;11.10;5.17;;;;;;;25.55;100.00;100988.81;2079272;28;20199;-65
2022/07/24 01:06:28;;;;;;;8.93;5.03;;;;;;;25.54;100.00;100990.13;2074263;28;20227;-65
2022/07/24 01:07:28;;;;;;;7.47;5.10;;;;;;;25.41;100.00;100995.63;2077449;28;20216;-65
2022/07/24 01:08:29;;;;;;;11.23;5.30;;;;;;;25.33;100.00;100991.81;2074364;28;20275;-65
2022/07/24 01:09:30;;;;;;;10.70;5.33;;;;;;;25.42;100.00;100997.94;2074199;28;20528;-65
2022/07/24 01:10:30;;;;;;;10.13;5.10;;;;;;;25.34;100.00;100968.56;2081329;28;20185;-65
2022/07/24 01:11:31;;;;;;;10.20;5.07;;;;;;;25.52;100.00;100996.31;2076598;28;20269;-65
2022/07/24 01:12:33;;;;;;;8.97;5.13;;;;;;;24.50;100.00;100833.47;2074288;28;20185;-65
2022/07/24 01:13:33;;;;;;;9.93;4.77;;;;;;;25.53;100.00;101000.69;2077586;28;20194;-65
2022/07/24 01:14:34;;;;;;;12.93;5.30;;;;;;;25.40;100.00;100986.34;2082077;28;20181;-65
2022/07/24 01:15:34;;;;;;;11.17;5.20;;;;;;;25.58;100.00;100982.09;2082003;28;20185;-65
2022/07/24 01:16:35;;;;;;;9.60;5.33;;;;;;;25.54;100.00;100976.69;2082195;28;20204;-65
2022/07/24 01:17:39;;;;;;;11.50;6.00;;;;;;;25.62;100.00;100986.19;2074082;28;20181;-65
2022/07/24 01:18:39;;;;;;;9.50;6.17;;;;;;;25.59;100.00;100990.06;2074002;28;20208;-65
2022/07/24 01:19:39;;;;;;;8.83;5.13;;;;;;;25.54;100.00;100990.13;2080330;28;20195;-65
2022/07/24 01:20:40;;;;;;;11.13;5.33;;;;;;;25.44;100.00;101003.84;2082040;28;20240;-65
2022/07/24 01:21:48;;;;;;;11.20;5.57;;;;;;;25.27;100.00;101000.34;2078006;28;20200;-65
2022/07/24 01:22:49;;;;;;;12.77;4.90;;;;;;;25.01;100.00;100980.09;2074037;28;20332;-65
2022/07/24 01:23:49;;;;;;;7.47;5.00;;;;;;;25.18;100.00;100991.34;2074060;28;20189;-65
2022/07/24 01:24:50;;;;;;;12.10;5.30;;;;;;;25.20;100.00;100998.06;2075144;28;20176;-65
2022/07/24 01:25:51;;;;;;;14.80;6.03;;;;;;;25.26;100.00;100998.81;2082099;28;20196;-65
2022/07/24 01:26:51;;;;;;;10.33;5.43;;;;;;;25.31;100.00;100998.00;2074082;28;20182;-65
2022/07/24 01:27:52;;;;;;;11.50;5.07;;;;;;;25.13;100.00;100966.63;2081482;28;20229;-65
2022/07/24 01:28:53;;;;;;;9.53;5.17;;;;;;;25.39;100.00;100992.53;2076329;28;20276;-65
2022/07/24 01:29:53;;;;;;;10.40;5.30;;;;;;;25.43;100.00;100990.19;2078991;28;20193;-65
2022/07/24 01:30:54;;;;;;;11.77;5.40;;;;;;;24.85;100.00;100895.13;2078456;28;20184;-65
2022/07/24 01:31:55;;;;;;;9.33;5.23;;;;;;;25.47;100.00;100987.81;2074014;28;20566;-65
2022/07/24 01:32:55;;;;;;;7.57;5.10;;;;;;;25.50;100.00;100990.41;2075606;28;20174;-65
2022/07/24 01:33:55;;;;;;;9.77;5.17;;;;;;;25.39;100.00;100981.94;2081864;28;20169;-65
2022/07/24 01:34:56;;;;;;;9.83;5.23;;;;;;;25.48;100.00;100998.66;2081954;28;20177;-65
2022/07/24 01:35:57;;;;;;;8.87;5.33;;;;;;;25.48;100.00;100995.81;2082198;28;20181;-65
2022/07/24 01:36:57;;;;;;;7.33;5.00;;;;;;;25.52;100.00;100996.31;2075623;28;20213;-65
2022/07/24 01:37:58;;;;;;;8.57;4.63;;;;;;;25.55;100.00;100995.28;2078513;28;20208;-65
2022/07/24 01:38:58;;;;;;;9.03;4.50;;;;;;;25.60;100.00;100990.84;2078561;28;20200;-65
2022/07/24 01:39:59;;;;;;;7.00;4.60;;;;;;;25.64;95.92;100994.91;2076102;28;20180;-65
2022/07/24 01:40:59;;;;;;;10.00;5.17;;;;;;;25.66;100.00;100989.50;2080558;28;20185;-65
2022/07/24 01:42:00;;;;;;;9.50;4.83;;;;;;;25.68;100.00;100997.47;2074075;28;20174;-65
2022/07/24 01:43:01;;;;;;;9.43;5.03;;;;;;;25.74;98.27;100989.72;2082064;28;20196;-65
2022/07/24 01:44:01;;;;;;;8.50;4.80;;;;;;;25.81;91.02;100995.59;2082019;28;20177;-65
2022/07/24 01:45:02;;;;;;;8.63;4.70;;;;;;;25.52;96.23;100955.81;2075737;28;20197;-65
2022/07/24 01:46:03;;;;;;;6.00;4.30;;;;;;;25.80;92.77;101013.88;2078201;28;20189;-65
2022/07/24 01:47:03;;;;;;;9.73;4.60;;;;;;;25.78;90.36;100995.84;2081146;28;20185;-65
2022/07/24 01:48:04;;;;;;;10.13;4.50;;;;;;;25.83;96.03;100998.66;2081875;28;20177;-65
2022/07/24 01:49:06;;;;;;;8.83;4.90;;;;;;;25.88;93.17;100995.00;2081104;28;20191;-65
2022/07/24 01:50:07;;;;;;;8.67;4.80;;;;;;;25.91;92.41;101005.34;2077467;28;20181;-65
2022/07/24 01:51:08;;;;;;;10.53;4.40;;;;;;;25.92;90.90;101008.94;2081802;28;20188;-65
2022/07/24 01:52:09;;;;;;;8.77;4.30;;;;;;;25.94;94.32;100998.56;2081471;28;20180;-65
2022/07/24 01:53:10;;;;;;;8.53;4.53;;;;;;;25.97;96.87;101010.94;2080914;28;20197;-65
2022/07/24 01:54:10;;;;;;;7.70;4.67;;;;;;;26.02;95.06;101008.06;2077169;28;20189;-65
2022/07/24 01:55:11;;;;;;;6.77;4.90;;;;;;;25.81;100.00;100967.19;2078914;28;20554;-65
2022/07/24 01:56:12;;;;;;;8.10;5.17;;;;;;;25.29;100.00;100898.47;2073683;28;20181;-65
2022/07/24 01:57:12;;;;;;;9.10;5.10;;;;;;;26.05;100.00;101007.00;2073669;28;20178;-65
2022/07/24 01:58:12;;;;;;;9.97;5.57;;;;;;;25.62;100.00;100937.94;2082130;28;20648;-65
2022/07/24 01:59:13;;;;;;;8.43;4.60;;;;;;;26.08;100.00;101005.94;2074848;28;20190;-65
2022/07/24 02:00:15;;;;;;;10.30;4.80;;;;;;;26.12;100.00;101000.75;2079806;28;20196;-65
2022/07/24 02:01:16;;;;;;;9.13;4.93;;;;;;;26.11;100.00;100992.75;2082042;28;20188;-65
2022/07/24 02:02:16;;;;;;;6.50;4.63;;;;;;;26.20;100.00;101007.38;2081858;28;20224;-65
2022/07/24 02:03:17;;;;;;;7.07;4.60;;;;;;;26.18;100.00;100995.00;2081743;28;20181;-65
2022/07/24 02:04:18;;;;;;;6.43;4.60;;;;;;;26.25;100.00;101005.78;2080911;28;20621;-65
2022/07/24 02:05:18;;;;;;;8.33;4.93;;;;;;;25.93;100.00;100965.81;2081547;28;20251;-65
2022/07/24 02:06:19;;;;;;;7.33;5.00;;;;;;;26.30;100.00;101014.25;2073937;28;20287;-65
2022/07/24 02:07:20;;;;;;;9.93;4.50;;;;;;;26.31;100.00;101015.03;2073388;28;20185;-65
2022/07/24 02:08:20;;;;;;;9.40;4.67;;;;;;;26.34;100.00;101013.94;2073600;28;20217;-65
2022/07/24 02:09:21;;;;;;;5.67;4.47;;;;;;;26.13;100.00;100975.94;2077866;28;20203;-65
2022/07/24 02:10:21;;;;;;;7.50;4.47;;;;;;;26.39;100.00;101008.22;2082075;28;20192;-65
2022/07/24 02:11:22;;;;;;;4.83;4.23;;;;;;;26.41;100.00;101024.75;2079604;28;20184;-65
2022/07/24 02:12:22;;;;;;;7.70;4.67;;;;;;;26.47;100.00;101031.13;2074700;28;20586;-65
2022/07/24 02:13:25;;;;;;;8.10;4.87;;;;;;;26.51;100.00;101017.41;2081916;28;20192;-65
2022/07/24 02:14:26;;;;;;;6.53;4.73;;;;;;;26.48;100.00;101041.97;2073230;28;20196;-65
2022/07/24 02:15:27;;;;;;;8.40;4.70;;;;;;;26.47;100.00;101017.66;2079934;28;20199;-65
2022/07/24 02:16:27;;;;;;;11.63;4.93;;;;;;;25.77;100.00;100903.47;2075680;28;20194;-65
2022/07/24 02:17:28;;;;;;;9.00;4.70;;;;;;;26.47;100.00;101017.66;2078593;28;20189;-65
2022/07/24 02:18:28;;;;;;;7.97;4.50;;;;;;;26.50;99.38;101019.47;2078290;28;20194;-65
2022/07/24 02:19:30;;;;;;;5.53;4.37;;;;;;;26.45;99.91;101016.69;2076224;28;20694;-65
2022/07/24 02:20:30;;;;;;;6.97;5.00;;;;;;;26.42;100.00;101020.59;2080285;28;20255;-65
2022/07/24 02:21:31;;;;;;;5.73;4.33;;;;;;;26.35;100.00;101013.41;2073838;28;20316;-65
2022/07/24 02:22:33;;;;;;;7.73;4.60;;;;;;;25.62;100.00;100909.56;2081722;28;20662;-65
2022/07/24 02:23:33;;;;;;;5.77;4.23;;;;;;;26.32;100.00;101031.53;2074984;28;20189;-65
2022/07/24 02:24:34;;;;;;;8.20;4.47;;;;;;;26.32;100.00;101025.09;2073562;28;20196;-65
2022/07/24 02:25:34;;;;;;;8.27;4.77;;;;;;;26.29;100.00;101031.81;2077436;28;20222;-65
2022/07/24 02:26:35;;;;;;;6.73;4.87;;;;;;;26.29;100.00;101035.44;2081974;28;20207;-65
2022/07/24 02:27:35;;;;;;;11.67;4.63;;;;;;;25.99;100.00;100982.81;2079536;28;20228;-65
2022/07/24 02:28:36;;;;;;;7.63;4.80;;;;;;;26.28;100.00;101036.75;2073728;28;20671;-65
2022/07/24 02:29:36;;;;;;;7.30;4.80;;;;;;;26.33;100.00;101032.28;2081891;28;20215;-65
2022/07/24 02:30:37;;;;;;;6.40;4.33;;;;;;;26.23;100.00;101034.72;2074483;28;20182;-65
2022/07/24 02:31:37;;;;;;;6.33;4.67;;;;;;;26.24;100.00;101033.41;2073478;28;20193;-65
2022/07/24 02:32:38;;;;;;;8.43;5.13;;;;;;;26.32;100.00;101048.59;2072975;28;20228;-65
2022/07/24 02:33:38;;;;;;;9.77;5.30;;;;;;;26.03;100.00;101005.97;2076776;28;20193;-65
2022/07/24 02:34:39;;;;;;;8.40;4.87;;;;;;;25.85;100.00;100978.25;2079440;28;20189;-65
2022/07/24 02:35:39;;;;;;;9.20;5.23;;;;;;;26.35;100.00;101052.44;2075165;28;20189;-65
2022/07/24 02:36:40;;;;;;;11.20;5.00;;;;;;;26.35;100.00;101055.28;2081901;28;20675;-65
2022/07/24 02:37:42;;;;;;;9.70;5.30;;;;;;;26.36;100.00;101054.72;2074356;28;20561;-65
2022/07/24 02:38:43;;;;;;;8.93;5.23;;;;;;;26.38;100.00;101057.03;2073375;28;20243;-65
2022/07/24 02:39:44;;;;;;;9.33;5.13;;;;;;;26.36;100.00;101056.81;2078633;28;20251;-65
2022/07/24 02:40:44;;;;;;;7.73;4.90;;;;;;;26.41;100.00;101064.53;2077783;28;20213;-65
2022/07/24 02:41:44;;;;;;;9.53;5.43;;;;;;;26.41;100.00;101056.75;2073390;28;20228;-65
2022/07/24 02:42:45;;;;;;;8.20;4.73;;;;;;;26.36;100.00;101057.56;2073574;28;20182;-65
2022/07/24 02:43:45;;;;;;;9.17;5.33;;;;;;;26.38;100.00;101057.03;2073274;28;20212;-65
2022/07/24 02:44:46;;;;;;;8.20;5.20;;;;;;;26.37;100.00;101061.19;2073274;28;20268;-65
2022/07/24 02:45:46;;;;;;;8.03;5.30;;;;;;;26.23;100.00;101037.56;2073619;28;20189;-65
2022/07/24 02:46:47;;;;;;;9.13;5.60;;;;;;;26.33;100.00;101063.56;2079674;28;20221;-65
2022/07/24 02:47:55;;;;;;;12.17;6.03;;;;;;;26.23;100.00;101063.13;2076933;28;20193;-65
2022/07/24 02:48:56;;;;;;;8.77;5.40;;;;;;;26.28;100.00;101064.38;2073532;28;20182;-65
2022/07/24 02:49:57;;;;;;;10.13;5.67;;;;;;;26.28;100.00;101059.47;2076384;28;20189;-65
2022/07/24 02:50:57;;;;;;;11.33;5.60;;;;;;;26.29;100.00;101069.53;2080638;28;20733;-65
2022/07/24 02:51:58;;;;;;;9.67;5.40;;;;;;;26.34;100.00;101070.78;2073691;28;20181;-65
2022/07/24 02:52:59;;;;;;;10.73;5.23;;;;;;;26.36;100.00;101062.50;2073583;28;20266;-65
2022/07/24 02:53:59;;;;;;;7.27;5.07;;;;;;;26.35;100.00;101061.72;2073237;28;20276;-65
2022/07/24 02:55:00;;;;;;;8.13;5.17;;;;;;;26.30;100.00;101051.19;2077953;28;20200;-65
2022/07/24 02:56:00;;;;;;;8.17;5.40;;;;;;;26.32;100.00;101067.69;2081789;28;20256;-65
2022/07/24 02:57:00;;;;;;;8.30;4.87;;;;;;;26.31;100.00;101066.16;2078813;28;20184;-65
2022/07/24 02:58:01;;;;;;;7.50;4.70;;;;;;;26.28;100.00;101073.69;2074983;28;20638;-65
2022/07/24 02:59:02;;;;;;;9.13;5.23;;;;;;;26.23;100.00;101065.19;2081548;28;20570;-65
2022/07/24 03:00:08;;;;;;;6.23;4.80;;;;;;;26.18;100.00;101051.81;2081509;28;20264;-65
2022/07/24 03:01:09;;;;;;;7.73;5.63;;;;;;;26.14;100.00;101057.00;2081452;28;20185;-65
2022/07/24 03:02:09;;;;;;;8.00;4.87;;;;;;;26.10;100.00;101056.53;2081356;28;20184;-65
2022/07/24 03:03:10;;;;;;;8.63;5.20;;;;;;;25.05;100.00;100898.38;2076392;28;20623;-65
2022/07/24 03:04:10;;;;;;;7.30;4.93;;;;;;;26.04;100.00;101052.97;2073875;28;20275;-65
2022/07/24 03:05:11;;;;;;;9.90;5.40;;;;;;;25.98;100.00;101055.09;2074663;28;20236;-65
2022/07/24 03:06:12;;;;;;;10.07;5.07;;;;;;;25.95;100.00;101056.16;2081402;28;20208;-65
2022/07/24 03:07:12;;;;;;;11.43;5.53;;;;;;;25.92;100.00;101048.69;2081485;28;20708;-65
2022/07/24 03:08:13;;;;;;;8.50;5.07;;;;;;;25.87;100.00;101050.25;2081677;28;20189;-65
2022/07/24 03:09:13;;;;;;;11.13;5.27;;;;;;;25.25;100.00;100966.06;2081322;28;20197;-65
2022/07/24 03:10:15;;;;;;;9.27;5.47;;;;;;;25.76;100.00;101041.81;2076563;28;20195;-65
2022/07/24 03:11:15;;;;;;;11.77;5.20;;;;;;;25.75;100.00;101050.84;2072963;28;20237;-65
2022/07/24 03:12:16;;;;;;;8.53;5.73;;;;;;;25.74;100.00;101057.84;2072984;28;20694;-65
2022/07/24 03:13:16;;;;;;;12.47;5.00;;;;;;;25.70;100.00;101046.75;2074524;28;20575;-65
2022/07/24 03:14:17;;;;;;;7.80;5.13;;;;;;;25.03;100.00;100940.63;2081396;28;20177;-65
2022/07/24 03:15:17;;;;;;;10.87;5.07;;;;;;;25.62;100.00;101040.09;2081307;28;20177;-65
2022/07/24 03:16:18;;;;;;;7.43;5.70;;;;;;;25.49;100.00;101031.41;2074140;28;20348;-65
2022/07/24 03:17:19;;;;;;;8.83;5.30;;;;;;;25.42;100.00;101034.81;2079315;28;20189;-65
2022/07/24 03:18:19;;;;;;;10.57;5.20;;;;;;;25.27;100.00;101034.38;2076522;28;20217;-65
2022/07/24 03:19:19;;;;;;;10.47;5.97;;;;;;;24.88;100.00;100974.22;2073112;28;20200;-65
2022/07/24 03:20:21;;;;;;;7.93;5.13;;;;;;;25.35;100.00;101037.44;2073377;28;20229;-65
2022/07/24 03:21:22;;;;;;;10.00;6.20;;;;;;;25.29;100.00;101042.38;2074982;28;20192;-65
2022/07/24 03:22:22;;;;;;;8.70;5.80;;;;;;;25.24;100.00;101045.97;2080668;28;20177;-65
2022/07/24 03:23:23;;;;;;;11.40;6.23;;;;;;;25.00;100.00;101011.81;2073311;28;20256;-65
2022/07/24 03:24:23;;;;;;;7.50;5.73;;;;;;;25.13;100.00;101058.16;2073177;28;20193;-65
2022/07/24 03:25:24;;;;;;;11.53;6.20;;;;;;;25.09;100.00;101048.38;2072939;28;20210;-64
2022/07/24 03:26:24;;;;;;;9.63;6.50;;;;;;;25.02;100.00;101051.78;2073839;28;20323;-65
2022/07/24 03:27:25;;;;;;;9.03;6.33;;;;;;;25.01;100.00;101059.50;2076044;28;20233;-64
2022/07/24 03:28:25;;;;;;;9.23;6.13;;;;;;;24.73;100.00;101032.53;2080964;28;20197;-65
2022/07/24 03:29:26;;;;;;;10.20;6.93;;;;;;;24.83;100.00;101059.31;2081142;28;20628;-65
2022/07/24 03:30:26;;;;;;;13.03;7.13;;;;;;;24.45;100.00;101012.75;2081526;28;20594;-65
2022/07/24 03:31:27;;;;;;;8.00;6.00;;;;;;;24.81;100.00;101059.03;2081563;28;20192;-65
2022/07/24 03:32:28;;;;;;;10.17;6.07;;;;;;;24.73;100.00;101063.72;2074992;28;20660;-65
2022/07/24 03:33:28;;;;;;;12.23;6.30;;;;;;;24.37;100.00;101010.97;2073150;28;20566;-65
2022/07/24 03:34:29;;;;;;;8.87;6.23;;;;;;;24.64;100.00;101047.00;2076144;28;20246;-65
2022/07/24 03:35:29;;;;;;;11.80;6.63;;;;;;;24.67;100.00;101057.31;2079247;28;20187;-65
2022/07/24 03:36:30;;;;;;;11.00;6.40;;;;;;;24.65;100.00;101057.81;2073775;28;20181;-65
2022/07/24 03:37:31;;;;;;;7.10;6.40;;;;;;;24.58;100.00;101046.22;2081278;28;20568;-65
2022/07/24 03:38:31;;;;;;;8.53;6.13;;;;;;;24.67;100.00;101054.47;2079948;28;20650;-65
2022/07/24 03:39:32;;;;;;;8.97;5.97;;;;;;;24.68;100.00;101062.47;2081381;28;20188;-65
2022/07/24 03:40:32;;;;;;;7.60;5.70;;;;;;;24.69;100.00;101063.22;2075848;28;20248;-65
2022/07/24 03:41:33;;;;;;;9.07;6.40;;;;;;;24.60;100.00;101058.59;2073292;28;20620;-65
2022/07/24 03:42:33;;;;;;;10.13;6.20;;;;;;;23.88;100.00;100958.78;2073121;28;20205;-65
2022/07/24 03:43:34;;;;;;;8.13;6.03;;;;;;;24.56;100.00;101062.97;2073000;28;20260;-65
2022/07/24 03:44:35;;;;;;;7.83;6.20;;;;;;;24.56;100.00;101058.06;2073271;28;20182;-65
2022/07/24 03:45:35;;;;;;;11.20;6.77;;;;;;;24.56;100.00;101062.97;2081216;28;20183;-65
2022/07/24 03:46:36;;;;;;;8.37;6.20;;;;;;;24.39;100.00;101059.38;2073924;28;20584;-65
2022/07/24 03:47:36;;;;;;;11.47;7.10;;;;;;;24.28;100.00;101068.69;2072364;28;20201;-65
2022/07/24 03:48:37;;;;;;;8.90;6.10;;;;;;;24.26;100.00;101070.47;2077006;28;20196;-65
2022/07/24 03:49:37;;;;;;;8.10;6.20;;;;;;;24.25;100.00;101075.34;2081347;28;20208;-65
2022/07/24 03:50:37;;;;;;;12.83;6.53;;;;;;;23.80;100.00;100997.34;2080702;28;20239;-65
2022/07/24 03:51:38;;;;;;;9.53;6.27;;;;;;;24.34;100.00;101074.31;2080323;28;20185;-65
2022/07/24 03:52:39;;;;;;;8.67;5.97;;;;;;;24.36;100.00;101069.69;2073323;28;20186;-65
2022/07/24 03:53:39;;;;;;;7.00;6.10;;;;;;;24.35;100.00;101073.81;2080860;28;20199;-65
2022/07/24 03:54:40;;;;;;;9.60;6.50;;;;;;;23.51;100.00;100951.81;2074902;28;20193;-65
2022/07/24 03:55:40;;;;;;;10.53;6.90;;;;;;;24.25;100.00;101075.34;2073003;28;20195;-65
2022/07/24 03:56:41;;;;;;;10.87;7.30;;;;;;;24.21;100.00;101076.91;2077072;28;20580;-65
2022/07/24 03:57:41;;;;;;;10.77;6.60;;;;;;;23.50;100.00;100962.38;2078144;28;20189;-65
2022/07/24 03:58:42;;;;;;;10.20;6.53;;;;;;;23.38;100.00;100943.09;2074244;28;20185;-65
2022/07/24 03:59:42;;;;;;;11.13;6.47;;;;;;;23.35;100.00;100929.97;2080731;28;20181;-65
2022/07/24 04:00:43;;;;;;;9.37;5.87;;;;;;;24.29;100.00;101081.53;2081315;28;20754;-65
2022/07/24 04:01:44;;;;;;;9.50;6.30;;;;;;;24.33;100.00;101081.28;2079951;28;20200;-65
2022/07/24 04:02:44;;;;;;;11.97;6.33;;;;;;;24.30;100.00;101079.50;2080618;28;20196;-65
2022/07/24 04:03:45;;;;;;;6.87;6.00;;;;;;;24.26;100.00;101085.38;2081336;28;20556;-65
2022/07/24 04:04:45;;;;;;;9.17;6.30;;;;;;;24.15;100.00;101078.97;2077651;28;20280;-65
2022/07/24 04:05:46;;;;;;;8.03;6.23;;;;;;;24.19;100.00;101074.59;2073203;28;20327;-65
2022/07/24 04:06:46;;;;;;;9.27;5.90;;;;;;;24.26;100.00;101081.81;2072831;28;20177;-65
2022/07/24 04:07:47;;;;;;;13.07;6.53;;;;;;;24.00;100.00;101033.91;2073148;28;20178;-65
2022/07/24 04:08:47;;;;;;;10.43;6.80;;;;;;;24.37;100.00;101074.03;2073166;28;20678;-65
2022/07/24 04:09:47;;;;;;;7.30;6.20;;;;;;;24.39;100.00;101068.66;2079550;28;20667;-65
2022/07/24 04:10:48;;;;;;;9.60;6.23;;;;;;;24.41;100.00;101068.91;2081352;28;20647;-65
2022/07/24 04:11:49;;;;;;;9.30;6.27;;;;;;;24.50;100.00;101067.84;2076890;28;20196;-65
2022/07/24 04:12:49;;;;;;;11.00;6.60;;;;;;;24.54;100.00;101066.31;2076437;28;20196;-65
2022/07/24 04:13:50;;;;;;;13.80;6.80;;;;;;;24.45;100.00;101069.41;2080980;28;20209;-65
2022/07/24 04:14:50;;;;;;;8.63;6.30;;;;;;;24.65;100.00;101065.53;2080724;28;20788;-65
2022/07/24 04:15:51;;;;;;;8.93;6.50;;;;;;;24.67;100.00;101075.06;2073226;28;20174;-65
2022/07/24 04:16:52;;;;;;;8.33;6.47;;;;;;;24.68;100.00;101073.00;2072833;28;20259;-65
2022/07/24 04:17:52;;;;;;;10.33;6.37;;;;;;;24.72;100.00;101065.78;2077525;28;20686;-65
2022/07/24 04:18:52;;;;;;;10.77;6.30;;;;;;;24.04;100.00;100960.06;2080568;28;20262;-65
2022/07/24 04:19:53;;;;;;;10.87;6.40;;;;;;;24.81;100.00;101067.53;2078164;28;20236;-65
2022/07/24 04:20:54;;;;;;;9.90;6.33;;;;;;;24.85;100.00;101068.06;2074576;28;20209;-65
2022/07/24 04:21:54;;;;;;;10.07;6.50;;;;;;;24.89;100.00;101072.19;2080560;28;20243;-65
2022/07/24 04:22:54;;;;;;;11.17;5.83;;;;;;;24.91;100.00;101075.25;2073159;28;20181;-65
2022/07/24 04:23:55;;;;;;;9.93;6.20;;;;;;;24.96;100.00;101074.47;2072811;28;20196;-65
2022/07/24 04:24:55;;;;;;;14.23;6.57;;;;;;;25.01;100.00;101075.72;2073127;28;20193;-65
2022/07/24 04:25:56;;;;;;;12.83;6.10;;;;;;;25.04;100.00;101080.38;2074763;28;20667;-65
2022/07/24 04:26:56;;;;;;;10.83;6.40;;;;;;;24.97;100.00;101072.41;2077338;28;20185;-65
2022/07/24 04:27:57;;;;;;;10.33;6.70;;;;;;;25.08;100.00;101075.94;2074513;28;20320;-65
2022/07/24 04:28:57;;;;;;;10.17;6.10;;;;;;;25.14;100.00;101076.72;2075399;28;20261;-65
2022/07/24 04:29:58;;;;;;;11.47;7.23;;;;;;;25.15;100.00;101074.66;2082936;28;20173;-65
2022/07/24 04:30:59;;;;;;;11.43;6.30;;;;;;;25.16;100.00;101076.19;2074672;28;20181;-65
2022/07/24 04:31:59;;;;;;;9.57;6.40;;;;;;;24.12;100.00;100905.22;2081438;28;20211;-65
2022/07/24 04:33:00;;;;;;;11.77;6.40;;;;;;;25.25;100.00;101073.06;2077240;28;20260;-65
2022/07/24 04:34:01;;;;;;;11.67;6.00;;;;;;;25.27;100.00;101073.31;2074533;28;20205;-65
2022/07/24 04:35:02;;;;;;;8.63;6.20;;;;;;;24.52;100.00;100960.47;2073883;28;20201;-65
2022/07/24 04:36:04;;;;;;;8.70;6.13;;;;;;;25.19;100.00;101064.56;2077564;28;20181;-65
2022/07/24 04:37:04;;;;;;;9.93;5.90;;;;;;;25.25;100.00;101075.88;2074955;28;20247;-65
2022/07/24 04:38:05;;;;;;;9.37;5.90;;;;;;;25.30;100.00;101083.63;2082828;28;20307;-65